Time;durP1;ratioP1;P1;durP2;ratioP2;P2;SDS_P1;SDS_P2;PMS_P1;PMS_P2;Temp;Humidity;BMP_temperature;BMP_pressure;BME280_temperature;BME280_humidity;BME280_pressure;Samples;Min_cycle;Max_cycle;Signal;HPM_P1;HPM_P2
2023/12/22 00:02:17;;;;;;;18.80;3.80;;;;;;;5.17;100.00;96973.42;216747;1295;140697;-91
2023/12/22 00:07:20;;;;;;;18.20;3.20;;;;;;;5.16;100.00;96964.66;217095;1295;138883;-90
2023/12/22 00:12:20;;;;;;;22.30;3.70;;;;;;;5.12;100.00;96971.30;216829;1296;229351;-91
2023/12/22 00:17:20;;;;;;;18.50;3.30;;;;;;;5.08;100.00;96977.70;217510;1295;138698;-95
2023/12/22 00:22:24;;;;;;;16.00;3.00;;;;;;;5.06;100.00;96984.82;216969;1295;140677;-94
2023/12/22 00:27:25;;;;;;;14.20;2.80;;;;;;;5.00;100.00;97005.20;217429;1295;138790;-94
2023/12/22 00:32:26;;;;;;;15.60;3.50;;;;;;;4.95;100.00;96994.19;216809;1296;139508;-91
2023/12/22 00:37:30;;;;;;;15.00;3.00;;;;;;;4.90;100.00;96985.02;217704;1295;138900;-91
2023/12/22 00:42:31;;;;;;;15.20;2.90;;;;;;;4.85;100.00;96979.82;217154;1295;139548;-92
2023/12/22 00:47:34;;;;;;;17.00;3.30;;;;;;;4.85;100.00;96987.86;217372;1296;138782;-92
2023/12/22 00:52:35;;;;;;;21.00;3.50;;;;;;;4.86;100.00;96982.55;216997;1295;139617;-91
2023/12/22 00:57:35;;;;;;;20.10;3.70;;;;;;;4.87;100.00;96981.90;217600;1295;139374;-91
2023/12/22 01:02:36;;;;;;;17.60;3.50;;;;;;;4.90;99.30;96987.27;216884;1296;140147;-89
2023/12/22 01:07:37;;;;;;;18.10;3.10;;;;;;;4.91;99.73;96996.98;217566;1295;138982;-93
2023/12/22 01:12:37;;;;;;;17.40;3.40;;;;;;;4.90;99.16;96990.15;216927;1295;139921;-91
2023/12/22 01:17:38;;;;;;;19.50;3.40;;;;;;;4.89;99.30;97001.30;217667;1295;139063;-93
2023/12/22 01:22:40;;;;;;;25.30;3.80;;;;;;;4.88;98.74;96998.70;216887;1296;139658;-91
2023/12/22 01:27:41;;;;;;;15.50;3.10;;;;;;;4.87;99.72;97021.83;217638;1295;139178;-95
2023/12/22 01:32:42;;;;;;;20.60;3.10;;;;;;;4.83;99.77;97019.48;216979;1295;139948;-92
2023/12/22 01:37:42;;;;;;;13.10;2.40;;;;;;;4.81;99.92;97017.05;217739;1295;95854;-96
2023/12/22 01:42:47;;;;;;;18.10;3.10;;;;;;;4.77;100.00;97008.63;217044;1295;139592;-96
2023/12/22 01:47:51;;;;;;;18.20;3.20;;;;;;;4.73;100.00;97007.40;217438;1296;138618;-93
2023/12/22 01:52:53;;;;;;;17.90;3.50;;;;;;;4.69;99.67;97019.93;216897;1295;139582;-91
2023/12/22 01:57:53;;;;;;;23.40;4.10;;;;;;;4.68;100.00;97023.23;217380;1295;138644;-92
2023/12/22 02:02:54;;;;;;;20.60;3.10;;;;;;;4.65;100.00;97028.11;217180;1296;138992;-92
2023/12/22 02:07:55;;;;;;;20.30;3.50;;;;;;;4.64;99.81;97026.05;217494;1295;138852;-93
2023/12/22 02:12:56;;;;;;;21.70;3.40;;;;;;;4.64;99.58;97029.46;216901;1296;140516;-91
2023/12/22 02:18:12;;;;;;;18.90;3.90;;;;;;;4.66;98.96;97040.08;217661;1295;138478;-94
2023/12/22 02:23:21;;;;;;;14.90;3.10;;;;;;;4.67;99.19;97045.57;216901;1296;139935;-96
2023/12/22 02:28:23;;;;;;;21.00;3.30;;;;;;;4.68;98.60;97038.40;217382;1298;139366;-90
2023/12/22 02:33:29;;;;;;;19.00;3.30;;;;;;;4.67;97.98;97050.16;217008;1295;140030;-92
2023/12/22 02:38:35;;;;;;;22.30;3.70;;;;;;;4.68;97.72;97059.80;217566;1295;138540;-95
2023/12/22 02:43:36;;;;;;;19.00;3.60;;;;;;;4.67;97.44;97057.80;217113;1295;139584;-95
2023/12/22 02:48:38;;;;;;;19.90;4.40;;;;;;;4.66;96.71;97062.02;218137;1294;95710;-94
2023/12/22 02:53:42;;;;;;;20.60;3.90;;;;;;;4.66;95.93;97058.67;217328;1293;139838;-90
2023/12/22 02:58:45;;;;;;;19.90;3.10;;;;;;;4.65;94.91;97057.92;217658;1295;138150;-95
2023/12/22 03:03:54;;;;;;;23.30;3.60;;;;;;;4.61;93.64;97076.96;217032;1295;139972;-92
2023/12/22 03:08:56;;;;;;;22.30;3.40;;;;;;;4.61;91.86;97086.00;217492;1296;139437;-94
2023/12/22 03:13:57;;;;;;;19.40;3.50;;;;;;;4.61;90.95;97094.89;216843;1295;142315;-95
2023/12/22 03:18:58;;;;;;;20.50;2.70;;;;;;;4.58;92.17;97097.66;217920;1295;96573;-93
2023/12/22 03:23:59;;;;;;;16.90;3.00;;;;;;;4.55;92.48;97102.61;216986;1294;139255;-91
2023/12/22 03:29:00;;;;;;;22.60;3.30;;;;;;;4.52;92.34;97106.33;217434;1296;138613;-90
2023/12/22 03:34:02;;;;;;;18.30;2.70;;;;;;;4.46;90.47;97105.97;216980;1296;140338;-93
2023/12/22 03:39:11;;;;;;;18.20;2.50;;;;;;;4.42;89.64;97110.94;217509;1295;139094;-93
2023/12/22 03:44:12;;;;;;;19.60;3.10;;;;;;;4.38;89.79;97114.90;216777;1296;139559;-89
2023/12/22 03:49:12;;;;;;;18.80;3.00;;;;;;;4.33;89.50;97111.02;217561;1294;95861;-93
2023/12/22 03:54:15;;;;;;;18.20;2.40;;;;;;;4.25;87.85;97111.92;216929;1296;140463;-91
2023/12/22 03:59:21;;;;;;;13.30;2.50;;;;;;;4.20;87.03;97119.10;217513;1296;139037;-92
2023/12/22 04:04:27;;;;;;;14.90;2.90;;;;;;;4.20;85.42;97122.98;216899;1295;139650;-92
2023/12/22 04:09:28;;;;;;;9.30;2.70;;;;;;;4.19;86.80;97138.00;217402;1296;138757;-92
2023/12/22 04:14:51;;;;;;;16.50;2.40;;;;;;;4.16;86.80;97163.56;217191;1295;139153;-92
2023/12/22 04:19:52;;;;;;;13.10;2.90;;;;;;;4.13;88.37;97166.65;217024;1298;139821;-93
2023/12/22 04:24:53;;;;;;;11.10;2.30;;;;;;;4.08;88.32;97162.61;217547;1295;95885;-93
2023/12/22 04:29:53;;;;;;;20.30;3.00;;;;;;;4.01;88.78;97166.76;217080;1297;139213;-90
2023/12/22 04:34:55;;;;;;;14.40;2.70;;;;;;;3.93;88.10;97156.92;217366;1297;138722;-91
2023/12/22 04:39:57;;;;;;;11.00;2.40;;;;;;;3.88;87.74;97160.11;216881;1295;139496;-90
2023/12/22 04:44:59;;;;;;;10.90;1.70;;;;;;;3.84;85.86;97151.08;217384;1295;138702;-92
2023/12/22 04:50:01;;;;;;;14.60;2.70;;;;;;;3.79;85.72;97154.80;216902;1296;139604;-89
2023/12/22 04:55:01;;;;;;;15.60;2.30;;;;;;;3.73;85.10;97152.48;217609;1295;95926;-88
2023/12/22 05:00:03;;;;;;;14.50;2.00;;;;;;;3.69;84.91;97167.38;216765;1296;140134;-91
2023/12/22 05:05:05;;;;;;;17.30;2.40;;;;;;;3.65;84.16;97174.44;217391;1296;138428;-90
2023/12/22 05:10:07;;;;;;;9.80;2.10;;;;;;;3.63;84.53;97169.17;216882;1296;139872;-90
2023/12/22 05:15:11;;;;;;;15.50;2.90;;;;;;;3.63;86.38;97178.04;217574;1296;138898;-92
2023/12/22 05:20:15;;;;;;;13.40;2.30;;;;;;;3.63;88.35;97185.49;216937;1296;139603;-89
2023/12/22 05:25:16;;;;;;;25.40;3.20;;;;;;;3.63;90.65;97193.49;217600;1294;105758;-89
2023/12/22 05:30:17;;;;;;;15.70;2.60;;;;;;;3.64;92.14;97191.23;217119;1296;139891;-90
2023/12/22 05:35:18;;;;;;;13.10;2.50;;;;;;;3.63;93.05;97182.31;217454;1298;138675;-93
2023/12/22 05:40:19;;;;;;;12.40;2.50;;;;;;;3.63;93.99;97185.58;216829;1297;139815;-93
2023/12/22 05:45:24;;;;;;;18.00;2.90;;;;;;;3.62;94.44;97185.96;217510;1295;138839;-92
2023/12/22 05:50:29;;;;;;;15.60;2.60;;;;;;;3.62;94.08;97185.20;216909;1294;140390;-95
2023/12/22 05:55:30;;;;;;;13.70;2.00;;;;;;;3.61;94.19;97182.10;217542;1295;138920;-92
2023/12/22 06:00:31;;;;;;;13.50;2.90;;;;;;;3.56;94.44;97166.70;216947;1295;140224;-91
2023/12/22 06:05:31;;;;;;;15.00;2.30;;;;;;;3.51;94.36;97155.52;217526;1296;137319;-88
2023/12/22 06:10:32;;;;;;;8.70;2.00;;;;;;;3.45;94.29;97153.04;217036;1296;139671;-90
2023/12/22 06:15:55;;;;;;;12.60;2.30;;;;;;;3.41;93.93;97157.44;217643;1295;138870;-94
2023/12/22 06:20:55;;;;;;;13.00;2.40;;;;;;;3.37;93.22;97163.40;216996;1295;140981;-94
2023/12/22 06:25:56;;;;;;;22.90;2.50;;;;;;;3.35;93.94;97163.80;217610;1295;138774;-92
2023/12/22 06:30:56;;;;;;;17.30;2.30;;;;;;;3.31;93.05;97156.80;217051;1295;140136;-93
2023/12/22 06:35:56;;;;;;;12.00;2.50;;;;;;;3.29;93.69;97154.72;217559;1294;138614;-93
2023/12/22 06:41:04;;;;;;;16.20;3.10;;;;;;;3.29;94.13;97164.50;216923;1296;140456;-96
2023/12/22 06:46:14;;;;;;;11.20;2.20;;;;;;;3.32;94.33;97161.68;217496;1296;139323;-94
2023/12/22 06:51:26;;;;;;;14.40;2.50;;;;;;;3.37;94.87;97155.63;217036;1295;140506;-91
2023/12/22 06:56:28;;;;;;;13.90;1.90;;;;;;;3.41;95.42;97146.27;217537;1296;139539;-89
2023/12/22 07:01:33;;;;;;;16.30;2.40;;;;;;;3.44;95.75;97137.38;217049;1295;139907;-89
2023/12/22 07:06:34;;;;;;;15.00;2.10;;;;;;;3.49;95.70;97128.14;217615;1295;112529;-92
2023/12/22 07:11:35;;;;;;;12.60;3.10;;;;;;;3.54;95.74;97121.94;216954;1295;139264;-93
2023/12/22 07:16:36;;;;;;;9.20;1.40;;;;;;;3.58;95.77;97124.76;217510;1295;138718;-91
2023/12/22 07:21:39;;;;;;;10.10;1.80;;;;;;;3.63;95.94;97126.30;217008;1294;140498;-94
2023/12/22 07:26:39;;;;;;;8.00;1.90;;;;;;;3.66;95.96;97128.28;217362;1296;138536;-91
2023/12/22 07:31:40;;;;;;;9.70;1.80;;;;;;;3.71;96.52;97132.41;216936;1295;139577;-86
2023/12/22 07:36:40;;;;;;;5.50;1.40;;;;;;;3.71;98.08;97137.06;217786;1294;96065;-89
2023/12/22 07:41:41;;;;;;;11.10;1.50;;;;;;;3.68;98.77;97146.80;216940;1295;139455;-90
2023/12/22 07:46:41;;;;;;;4.90;1.30;;;;;;;3.67;99.09;97151.02;217390;1295;138575;-90
2023/12/22 07:51:43;;;;;;;5.80;1.40;;;;;;;3.64;98.29;97161.87;217006;1296;140015;-94
2023/12/22 07:56:44;;;;;;;8.90;1.80;;;;;;;3.59;98.92;97167.14;217347;1296;138705;-90
2023/12/22 08:01:45;;;;;;;8.60;1.40;;;;;;;3.52;98.68;97162.88;216884;1295;139325;-93
2023/12/22 08:06:47;;;;;;;9.00;1.50;;;;;;;3.50;96.80;97153.52;217524;1294;96390;-95
2023/12/22 08:11:52;;;;;;;6.20;1.50;;;;;;;3.49;96.84;97157.42;217054;1295;139289;-94
2023/12/22 08:16:53;;;;;;;5.70;1.00;;;;;;;3.52;94.31;97163.42;217328;1295;138928;-92
2023/12/22 08:21:54;;;;;;;6.60;1.50;;;;;;;3.54;94.38;97170.40;216879;1295;139622;-93
2023/12/22 08:26:55;;;;;;;8.20;1.20;;;;;;;3.55;95.44;97181.49;217393;1295;138459;-89
2023/12/22 08:31:55;;;;;;;13.40;1.60;;;;;;;3.47;98.66;97202.16;216909;1295;140197;-87
2023/12/22 08:36:56;;;;;;;5.00;1.10;;;;;;;3.16;100.00;97204.64;217394;1295;96183;-87
2023/12/22 08:41:57;;;;;;;4.80;1.10;;;;;;;2.76;100.00;97181.35;216881;1295;140287;-89
2023/12/22 08:46:59;;;;;;;7.50;1.50;;;;;;;2.53;100.00;97183.36;217190;1295;139189;-88
2023/12/22 08:52:00;;;;;;;12.90;2.90;;;;;;;2.43;100.00;97180.66;216821;1295;139579;-86
2023/12/22 08:57:02;;;;;;;13.90;2.60;;;;;;;2.42;100.00;97181.38;217363;1295;138850;-88
2023/12/22 09:02:06;;;;;;;19.90;3.60;;;;;;;2.46;100.00;97194.67;216552;1296;140461;-91
2023/12/22 09:07:07;;;;;;;15.10;2.20;;;;;;;2.53;100.00;97184.14;217503;1296;96739;-93
2023/12/22 09:12:09;;;;;;;11.40;2.00;;;;;;;2.62;100.00;97196.93;216756;1295;141137;-86
2023/12/22 09:17:09;;;;;;;12.30;2.00;;;;;;;2.66;100.00;97206.52;217536;1296;138614;-90
2023/12/22 09:22:19;;;;;;;14.10;2.80;;;;;;;2.69;100.00;97201.20;217062;1294;140064;-94
2023/12/22 09:27:19;;;;;;;8.80;2.10;;;;;;;2.73;100.00;97198.74;217621;1295;138789;-90
2023/12/22 09:32:20;;;;;;;10.10;2.60;;;;;;;2.78;100.00;97193.82;216956;1295;140464;-93
2023/12/22 09:37:20;;;;;;;10.30;2.90;;;;;;;2.85;100.00;97188.40;217657;1295;138882;-94
2023/12/22 09:42:21;;;;;;;12.20;2.50;;;;;;;2.92;100.00;97182.41;217196;1296;140293;-94
2023/12/22 09:47:22;;;;;;;6.70;1.60;;;;;;;2.98;100.00;97183.20;217069;1292;447526;-85
2023/12/22 09:52:23;;;;;;;14.90;2.10;;;;;;;3.05;100.00;97181.88;216804;1295;139997;-83
2023/12/22 09:57:26;;;;;;;13.80;2.70;;;;;;;3.14;100.00;97183.25;217472;1295;138939;-82
2023/12/22 10:02:29;;;;;;;9.50;1.90;;;;;;;3.23;100.00;97176.63;216689;1295;140565;-85
2023/12/22 10:07:30;;;;;;;13.40;2.90;;;;;;;3.29;100.00;97169.42;217430;1296;139816;-83
2023/12/22 10:12:34;;;;;;;8.60;1.80;;;;;;;3.34;100.00;97174.70;217015;1295;140802;-85
2023/12/22 10:17:36;;;;;;;12.10;1.90;;;;;;;3.38;100.00;97175.96;217283;1296;138560;-84
2023/12/22 10:22:36;;;;;;;7.20;1.90;;;;;;;3.43;100.00;97168.61;216851;1299;139953;-82
2023/12/22 10:27:36;;;;;;;9.60;1.80;;;;;;;3.45;100.00;97169.02;217391;1295;139154;-82
2023/12/22 10:32:43;;;;;;;15.50;2.70;;;;;;;3.49;99.16;97182.35;216882;1295;139845;-84
2023/12/22 10:37:46;;;;;;;9.80;1.80;;;;;;;3.55;98.06;97185.91;217410;1298;139145;-84
2023/12/22 10:42:48;;;;;;;17.80;2.30;;;;;;;3.60;98.61;97196.25;217010;1295;139286;-84
2023/12/22 10:47:50;;;;;;;12.50;2.50;;;;;;;3.61;99.48;97202.13;217386;1295;138690;-84
2023/12/22 10:52:51;;;;;;;10.10;2.20;;;;;;;3.60;99.82;97197.02;216769;1295;141421;-86
2023/12/22 10:57:52;;;;;;;10.70;1.90;;;;;;;3.60;98.84;97195.95;217261;1295;139556;-83
2023/12/22 11:03:01;;;;;;;12.30;4.30;;;;;;;3.63;97.37;97190.15;216906;1295;139645;-83
2023/12/22 11:08:03;;;;;;;10.60;2.20;;;;;;;3.68;97.49;97193.81;217332;1294;138692;-89
2023/12/22 11:13:04;;;;;;;11.30;2.30;;;;;;;3.70;96.63;97194.88;216924;1296;140177;-82
2023/12/22 11:18:06;;;;;;;13.30;2.30;;;;;;;3.73;97.33;97192.50;217343;1295;138815;-85
2023/12/22 11:23:09;;;;;;;10.30;2.10;;;;;;;3.76;96.89;97191.61;216791;1296;139657;-83
2023/12/22 11:28:11;;;;;;;10.00;2.10;;;;;;;3.80;95.56;97201.48;217304;1296;140974;-84
2023/12/22 11:33:13;;;;;;;13.10;2.70;;;;;;;3.83;96.28;97198.58;216694;1293;141201;-83
2023/12/22 11:38:13;;;;;;;15.60;3.20;;;;;;;3.86;95.96;97215.32;217310;1296;139366;-84
2023/12/22 11:43:14;;;;;;;15.00;3.20;;;;;;;3.86;96.55;97214.77;217026;1294;141197;-85
2023/12/22 11:48:15;;;;;;;20.20;3.00;;;;;;;3.86;97.52;97219.59;217421;1295;138344;-87
2023/12/22 11:53:22;;;;;;;13.30;2.60;;;;;;;3.87;97.24;97226.80;216741;1295;140281;-83
2023/12/22 11:58:36;;;;;;;16.50;2.50;;;;;;;3.86;96.77;97235.20;217242;1295;139355;-83
2023/12/22 12:03:43;;;;;;;18.70;3.20;;;;;;;3.87;96.91;97237.52;216694;1296;139906;-83
2023/12/22 12:08:44;;;;;;;14.30;2.50;;;;;;;3.87;96.97;97243.91;217250;1296;138591;-84
2023/12/22 12:13:46;;;;;;;12.60;2.50;;;;;;;3.84;96.71;97252.48;216774;1295;139777;-85
2023/12/22 12:18:47;;;;;;;11.60;2.70;;;;;;;3.87;96.21;97267.76;217415;1295;96043;-83
2023/12/22 12:23:48;;;;;;;22.00;3.00;;;;;;;3.89;95.87;97275.98;216805;1296;139290;-84
2023/12/22 12:28:50;;;;;;;14.90;2.70;;;;;;;3.92;94.90;97267.14;217315;1296;139908;-84
2023/12/22 12:33:50;;;;;;;11.20;2.60;;;;;;;3.93;95.15;97275.83;216860;1296;139665;-84
2023/12/22 12:39:15;;;;;;;13.20;2.70;;;;;;;3.95;94.17;97279.54;217218;1298;139412;-84
2023/12/22 12:44:17;;;;;;;11.30;2.90;;;;;;;3.97;92.83;97280.66;216684;1295;139534;-83
2023/12/22 12:49:19;;;;;;;13.70;3.40;;;;;;;3.98;92.91;97292.31;217446;1296;95962;-86
2023/12/22 12:54:20;;;;;;;16.20;3.30;;;;;;;4.00;91.99;97285.08;216916;1294;139322;-84
2023/12/22 12:59:20;;;;;;;12.10;3.50;;;;;;;3.99;92.71;97289.58;217297;1295;138810;-87
2023/12/22 13:04:21;;;;;;;18.10;2.50;;;;;;;3.98;91.88;97288.20;216783;1295;140548;-87
2023/12/22 13:09:32;;;;;;;12.90;2.60;;;;;;;3.99;92.03;97283.83;217364;1295;138645;-87
2023/12/22 13:14:33;;;;;;;13.90;2.50;;;;;;;4.00;90.26;97304.66;216837;1296;139795;-84
2023/12/22 13:19:33;;;;;;;13.80;2.90;;;;;;;4.00;90.27;97321.45;217272;1294;138659;-87
2023/12/22 13:24:33;;;;;;;10.70;2.30;;;;;;;4.02;89.79;97319.92;217028;1295;139512;-86
2023/12/22 13:29:44;;;;;;;16.50;3.20;;;;;;;4.01;88.46;97321.50;217460;1295;138690;-85
2023/12/22 13:34:53;;;;;;;15.80;3.00;;;;;;;4.02;88.34;97321.65;216928;1295;140032;-85
2023/12/22 13:39:54;;;;;;;11.70;2.50;;;;;;;4.02;87.69;97331.52;216769;1294;140779;-86
2023/12/22 13:44:55;;;;;;;12.90;3.00;;;;;;;4.01;87.64;97336.89;217231;1296;140507;-82
2023/12/22 13:49:57;;;;;;;16.40;3.90;;;;;;;4.02;86.10;97345.35;216841;1295;140093;-85
2023/12/22 13:55:00;;;;;;;14.20;3.70;;;;;;;4.00;85.48;97349.27;217292;1295;96582;-83
2023/12/22 14:00:01;;;;;;;18.00;3.10;;;;;;;4.00;85.32;97351.29;216527;1295;139725;-82
2023/12/22 14:05:02;;;;;;;16.10;3.00;;;;;;;4.01;84.75;97362.55;217302;1295;139078;-83
2023/12/22 14:10:10;;;;;;;18.30;3.00;;;;;;;4.01;83.67;97370.23;216870;1295;139529;-83
2023/12/22 14:15:11;;;;;;;12.40;2.40;;;;;;;4.01;83.53;97380.96;217251;1295;140356;-85
2023/12/22 14:20:12;;;;;;;14.90;3.00;;;;;;;3.99;83.88;97391.41;216904;1295;139892;-84
2023/12/22 14:25:13;;;;;;;9.70;2.60;;;;;;;3.96;84.18;97390.04;217365;1295;96402;-83
2023/12/22 14:30:13;;;;;;;16.20;3.20;;;;;;;3.93;84.16;97410.28;216659;1295;139535;-84
2023/12/22 14:35:14;;;;;;;15.50;3.20;;;;;;;3.88;82.71;97411.91;217388;1295;139270;-83
2023/12/22 14:40:15;;;;;;;17.70;2.20;;;;;;;3.86;83.80;97415.20;216730;1295;139475;-83
2023/12/22 14:45:15;;;;;;;9.40;2.00;;;;;;;3.81;83.32;97417.10;217334;1295;139531;-85
2023/12/22 14:50:17;;;;;;;13.10;2.00;;;;;;;3.77;83.09;97427.00;216929;1295;140107;-86
2023/12/22 14:55:18;;;;;;;11.20;2.10;;;;;;;3.74;83.65;97433.64;217502;1296;96066;-88
2023/12/22 15:00:19;;;;;;;9.20;2.00;;;;;;;3.69;84.48;97439.98;216816;1295;139824;-85
2023/12/22 15:05:20;;;;;;;13.70;2.40;;;;;;;3.66;84.88;97460.21;217221;1296;139282;-84
2023/12/22 15:10:21;;;;;;;14.60;2.30;;;;;;;3.64;85.51;97465.77;216692;1295;140946;-83
2023/12/22 15:15:21;;;;;;;13.10;2.20;;;;;;;3.60;85.28;97465.55;217227;1296;138769;-85
2023/12/22 15:20:22;;;;;;;14.60;2.70;;;;;;;3.57;85.87;97468.94;216628;1295;140575;-84
2023/12/22 15:25:22;;;;;;;20.40;2.30;;;;;;;3.55;85.60;97477.56;217089;1295;139172;-85
2023/12/22 15:30:25;;;;;;;14.80;4.30;;;;;;;3.52;85.77;97482.80;216728;1296;140255;-84
2023/12/22 15:35:25;;;;;;;12.10;3.00;;;;;;;3.51;85.61;97480.56;217187;1295;138955;-84
2023/12/22 15:40:26;;;;;;;22.00;4.60;;;;;;;3.49;83.65;97480.17;216338;1294;140148;-86
2023/12/22 15:45:26;;;;;;;30.70;7.30;;;;;;;3.46;83.34;97487.52;216947;1295;139416;-86
2023/12/22 15:50:27;;;;;;;14.70;4.00;;;;;;;3.43;82.81;97488.39;216839;1295;139722;-87
2023/12/22 15:55:27;;;;;;;8.10;2.90;;;;;;;3.40;82.90;97481.89;217397;1295;138653;-85
2023/12/22 16:00:28;;;;;;;14.80;3.00;;;;;;;3.39;82.37;97482.98;216784;1295;140059;-84
2023/12/22 16:05:29;;;;;;;9.30;2.20;;;;;;;3.38;82.90;97488.04;217460;1293;138580;-84
2023/12/22 16:10:29;;;;;;;13.70;2.60;;;;;;;3.37;83.28;97501.55;216665;1295;139546;-84
2023/12/22 16:15:30;;;;;;;16.10;2.60;;;;;;;3.35;84.12;97518.80;217369;1295;139798;-88
2023/12/22 16:20:30;;;;;;;13.40;2.00;;;;;;;3.27;85.97;97512.73;216911;1294;140640;-84
2023/12/22 16:25:31;;;;;;;8.80;2.40;;;;;;;3.22;86.94;97528.77;217407;1296;138807;-84
2023/12/22 16:30:32;;;;;;;12.80;2.20;;;;;;;3.18;87.11;97526.61;216905;1295;139888;-87
2023/12/22 16:35:32;;;;;;;12.20;2.30;;;;;;;3.14;86.60;97523.31;217340;1295;139666;-85
2023/12/22 16:40:33;;;;;;;15.20;2.40;;;;;;;3.11;86.82;97529.37;216897;1295;140426;-85
2023/12/22 16:45:34;;;;;;;10.40;2.40;;;;;;;3.09;85.21;97534.51;217295;1295;139818;-85
2023/12/22 16:50:34;;;;;;;10.50;2.60;;;;;;;3.08;85.32;97539.95;216888;1294;139972;-86
2023/12/22 16:55:35;;;;;;;11.90;2.40;;;;;;;3.06;83.95;97548.02;217326;1295;139572;-83
2023/12/22 17:00:35;;;;;;;16.60;3.50;;;;;;;3.05;82.90;97543.84;216939;1295;140766;-87
2023/12/22 17:05:36;;;;;;;15.50;4.40;;;;;;;3.02;81.56;97556.67;217433;1294;138995;-84
2023/12/22 17:10:37;;;;;;;18.90;3.20;;;;;;;3.00;83.40;97565.84;216912;1295;140159;-87
2023/12/22 17:15:37;;;;;;;14.00;2.90;;;;;;;2.92;84.69;97565.02;217482;1294;138868;-85
2023/12/22 17:20:37;;;;;;;16.00;3.00;;;;;;;2.83;85.56;97567.85;216924;1295;140315;-85
2023/12/22 17:25:38;;;;;;;12.20;2.50;;;;;;;2.75;86.64;97563.17;217311;1295;138514;-89
2023/12/22 17:30:39;;;;;;;12.40;3.30;;;;;;;2.66;87.28;97568.55;216857;1296;140215;-84
2023/12/22 17:35:39;;;;;;;20.40;3.50;;;;;;;2.58;87.58;97561.46;217339;1295;138597;-85
2023/12/22 17:40:40;;;;;;;13.50;2.10;;;;;;;2.52;87.14;97573.55;216636;1295;140039;-85
2023/12/22 17:45:41;;;;;;;16.00;2.40;;;;;;;2.49;86.34;97575.36;217475;1295;139116;-85
2023/12/22 17:50:41;;;;;;;18.30;3.50;;;;;;;2.46;85.85;97584.59;216671;1295;140240;-85
2023/12/22 17:55:42;;;;;;;15.70;2.10;;;;;;;2.44;86.83;97595.54;217292;1295;138552;-84
2023/12/22 18:00:42;;;;;;;12.80;3.00;;;;;;;2.40;87.91;97599.33;216928;1295;140427;-84
2023/12/22 18:05:43;;;;;;;10.90;2.30;;;;;;;2.35;89.22;97607.11;217363;1295;138886;-82
2023/12/22 18:10:43;;;;;;;13.00;2.50;;;;;;;2.32;90.53;97610.98;216894;1294;139317;-84
2023/12/22 18:15:46;;;;;;;10.70;2.40;;;;;;;2.28;91.08;97605.17;217218;1294;139469;-82
2023/12/22 18:20:47;;;;;;;8.90;2.20;;;;;;;2.26;91.87;97613.02;216673;1295;139681;-83
2023/12/22 18:25:47;;;;;;;9.90;2.10;;;;;;;2.26;92.69;97625.73;217337;1295;138826;-84
2023/12/22 18:30:48;;;;;;;12.90;3.50;;;;;;;2.27;93.25;97626.66;216814;1295;138978;-83
2023/12/22 18:35:49;;;;;;;15.10;3.30;;;;;;;2.27;93.73;97628.20;217429;1295;138391;-84
2023/12/22 18:40:50;;;;;;;16.60;3.20;;;;;;;2.25;93.82;97620.06;216901;1296;140103;-84
2023/12/22 18:45:51;;;;;;;14.10;3.10;;;;;;;2.26;94.23;97618.83;217316;1294;139077;-85
2023/12/22 18:50:51;;;;;;;18.70;3.90;;;;;;;2.25;93.91;97618.52;216744;1295;139487;-85
2023/12/22 18:55:53;;;;;;;12.80;3.30;;;;;;;2.26;93.68;97619.05;217145;1295;139713;-85
2023/12/22 19:00:53;;;;;;;21.00;6.20;;;;;;;2.28;93.55;97621.54;216883;1296;139778;-84
2023/12/22 19:05:54;;;;;;;15.00;4.60;;;;;;;2.28;93.35;97620.68;217247;1295;140318;-83
2023/12/22 19:10:54;;;;;;;17.20;5.40;;;;;;;2.28;93.39;97626.50;216735;1295;139492;-83
2023/12/22 19:15:55;;;;;;;18.00;5.10;;;;;;;2.29;93.08;97632.39;217425;1295;139594;-83
2023/12/22 19:20:57;;;;;;;9.10;2.50;;;;;;;2.30;92.34;97634.31;216870;1295;140007;-82
2023/12/22 19:25:57;;;;;;;11.90;2.60;;;;;;;2.33;92.06;97648.89;217309;1295;138700;-85
2023/12/22 19:30:58;;;;;;;16.20;3.20;;;;;;;2.36;91.32;97651.06;216773;1295;141047;-84
2023/12/22 19:35:58;;;;;;;11.60;2.20;;;;;;;2.39;90.82;97650.60;217240;1294;138453;-83
2023/12/22 19:40:59;;;;;;;8.40;2.20;;;;;;;2.42;89.68;97657.65;216756;1296;139553;-82
2023/12/22 19:45:59;;;;;;;6.40;2.10;;;;;;;2.46;89.54;97657.64;217272;1295;138370;-84
2023/12/22 19:51:00;;;;;;;16.60;3.30;;;;;;;2.48;89.65;97664.99;216747;1296;139943;-85
2023/12/22 19:56:01;;;;;;;9.70;2.80;;;;;;;2.47;89.05;97673.36;217358;1295;138656;-82
2023/12/22 20:01:02;;;;;;;10.30;2.20;;;;;;;2.43;89.09;97678.65;216914;1295;140197;-83
2023/12/22 20:06:04;;;;;;;12.80;2.50;;;;;;;2.39;88.96;97679.35;217171;1295;139769;-83
2023/12/22 20:11:05;;;;;;;14.00;3.10;;;;;;;2.36;88.99;97682.84;216769;1295;140064;-85
2023/12/22 20:16:06;;;;;;;9.40;1.80;;;;;;;2.34;88.85;97694.41;217188;1296;139048;-85
2023/12/22 20:21:09;;;;;;;11.00;1.60;;;;;;;2.34;89.58;97693.48;216820;1295;140632;-83
2023/12/22 20:26:11;;;;;;;5.50;1.80;;;;;;;2.34;89.79;97696.19;217264;1294;138626;-84
2023/12/22 20:31:12;;;;;;;12.00;1.90;;;;;;;2.35;89.43;97711.45;216791;1296;140859;-84
2023/12/22 20:36:12;;;;;;;11.00;2.10;;;;;;;2.35;89.27;97714.95;217274;1296;138270;-83
2023/12/22 20:41:13;;;;;;;13.90;2.40;;;;;;;2.36;89.53;97723.46;216911;1295;141366;-85
2023/12/22 20:46:13;;;;;;;8.90;1.60;;;;;;;2.37;88.60;97725.73;217337;1295;138768;-84
2023/12/22 20:51:13;;;;;;;9.50;1.80;;;;;;;2.38;88.78;97732.46;216687;1295;139330;-83
2023/12/22 20:56:18;;;;;;;12.70;2.10;;;;;;;2.37;88.74;97744.56;217361;1295;138468;-84
2023/12/22 21:01:19;;;;;;;10.90;3.20;;;;;;;2.36;88.28;97749.30;216838;1295;140057;-83
2023/12/22 21:06:20;;;;;;;8.90;3.70;;;;;;;2.33;86.89;97749.60;217375;1294;138808;-86
2023/12/22 21:11:22;;;;;;;8.70;2.20;;;;;;;2.28;86.83;97748.20;216762;1295;139529;-84
2023/12/22 21:16:22;;;;;;;9.50;2.80;;;;;;;2.21;87.06;97752.23;217475;1296;138456;-84
2023/12/22 21:21:23;;;;;;;13.80;3.90;;;;;;;2.14;86.38;97748.73;216943;1295;139277;-86
2023/12/22 21:26:23;;;;;;;11.00;3.00;;;;;;;2.08;86.64;97751.59;217285;1295;138614;-84
2023/12/22 21:31:24;;;;;;;15.90;2.90;;;;;;;2.01;86.96;97754.37;216878;1295;139938;-85
2023/12/22 21:36:25;;;;;;;14.70;3.10;;;;;;;1.93;87.47;97751.57;217404;1296;96000;-84
2023/12/22 21:41:26;;;;;;;16.20;2.90;;;;;;;1.87;87.65;97752.72;216837;1294;139259;-84
2023/12/22 21:46:27;;;;;;;12.40;2.00;;;;;;;1.81;88.06;97752.31;217182;1295;209501;-85
2023/12/22 21:51:27;;;;;;;14.40;1.90;;;;;;;1.75;88.18;97760.59;216694;1295;139736;-84
2023/12/22 21:56:28;;;;;;;15.90;2.00;;;;;;;1.68;88.82;97774.43;217294;1295;138859;-85
2023/12/22 22:01:28;;;;;;;13.40;2.80;;;;;;;1.61;89.21;97779.27;216908;1295;140239;-85
2023/12/22 22:06:29;;;;;;;14.00;2.70;;;;;;;1.55;89.70;97782.98;217479;1295;96058;-83
2023/12/22 22:11:29;;;;;;;7.70;1.60;;;;;;;1.50;90.27;97781.95;216750;1294;140379;-83
2023/12/22 22:16:30;;;;;;;9.50;1.80;;;;;;;1.43;90.43;97784.95;217142;1296;139397;-84
2023/12/22 22:21:30;;;;;;;18.00;2.60;;;;;;;1.37;90.92;97791.88;216771;1295;139908;-84
2023/12/22 22:26:32;;;;;;;8.10;2.20;;;;;;;1.35;91.65;97797.66;217185;1295;139208;-85
2023/12/22 22:31:32;;;;;;;11.80;1.80;;;;;;;1.33;91.85;97802.31;216649;1295;140035;-87
2023/12/22 22:36:33;;;;;;;6.80;1.40;;;;;;;1.32;91.59;97796.58;217541;1295;95844;-87
2023/12/22 22:41:34;;;;;;;16.10;4.10;;;;;;;1.31;92.21;97801.30;216641;1295;139249;-87
2023/12/22 22:46:35;;;;;;;10.80;2.40;;;;;;;1.29;92.23;97799.96;217460;1294;138902;-88
2023/12/22 22:51:35;;;;;;;9.20;1.50;;;;;;;1.28;92.60;97793.55;216871;1295;139601;-87
2023/12/22 22:56:42;;;;;;;10.00;1.40;;;;;;;1.26;93.38;97788.19;217440;1296;138565;-88
2023/12/22 23:01:46;;;;;;;11.50;1.70;;;;;;;1.24;93.02;97793.59;216633;1296;139504;-87
2023/12/22 23:06:47;;;;;;;9.50;2.20;;;;;;;1.21;93.32;97799.61;217361;1296;96240;-87